KSUW/SUW METAR and TAF weather

Enter ICAO airport designator
Station Type Date Time Source
KSUW METAR 2022/01/25 04:15 UTC NOAA

KSUW 250415Z AUTO 00000KT 10SM CLR M20/M25 A3012 RMK AO2 T11961255


Station Type Date Time Source
KSUW Decoded METAR 2022/01/25 04:15 UTC NOAA

Superior, Richard I. Bong Airport, WI, United States (KSUW) 46-41-23N 092-05-41W
Jan 24, 2022 - 11:15 PM EST / 2022.01.25 0415 UTC
Wind: Calm:0
Visibility: 10 mile(s):0
Sky conditions: clear
Temperature: -3.3 F (-19.6 C)
Dew Point: -13.9 F (-25.5 C)
Relative Humidity: 59%
Pressure (altimeter): 30.12 in. Hg (1019 hPa)
ob: KSUW 250415Z AUTO 00000KT 10SM CLR M20/M25 A3012 RMK AO2 T11961255
cycle: 4

Station Type Date Time Source
KSUW TAF UTC NOAA

Error!

Example: see airport list